sensor_id;sensor_type;location;lat;lon;timestamp;temperature;humidity
70366;DHT22;57787;48.216;12.396;2024-03-02T00:01:54;6.10;90.10
70366;DHT22;57787;48.216;12.396;2024-03-02T00:04:21;6.00;90.10
70366;DHT22;57787;48.216;12.396;2024-03-02T00:06:53;6.00;90.10
70366;DHT22;57787;48.216;12.396;2024-03-02T00:09:23;5.80;90.20
70366;DHT22;57787;48.216;12.396;2024-03-02T00:11:50;5.80;90.20
70366;DHT22;57787;48.216;12.396;2024-03-02T00:14:17;5.70;90.40
70366;DHT22;57787;48.216;12.396;2024-03-02T00:16:44;5.70;90.50
70366;DHT22;57787;48.216;12.396;2024-03-02T00:19:11;5.60;90.60
70366;DHT22;57787;48.216;12.396;2024-03-02T00:21:37;5.50;90.60
70366;DHT22;57787;48.216;12.396;2024-03-02T00:24:07;5.40;90.60
70366;DHT22;57787;48.216;12.396;2024-03-02T00:26:39;5.40;90.60
70366;DHT22;57787;48.216;12.396;2024-03-02T00:29:06;5.40;90.70
70366;DHT22;57787;48.216;12.396;2024-03-02T00:31:34;5.40;90.80
70366;DHT22;57787;48.216;12.396;2024-03-02T00:34:01;5.40;91.20
70366;DHT22;57787;48.216;12.396;2024-03-02T00:36:30;5.40;91.20
70366;DHT22;57787;48.216;12.396;2024-03-02T00:38:56;5.40;91.00
70366;DHT22;57787;48.216;12.396;2024-03-02T00:41:30;5.30;90.90
70366;DHT22;57787;48.216;12.396;2024-03-02T00:46:24;5.20;90.90
70366;DHT22;57787;48.216;12.396;2024-03-02T00:48:55;5.20;90.80
70366;DHT22;57787;48.216;12.396;2024-03-02T00:51:24;5.10;91.10
70366;DHT22;57787;48.216;12.396;2024-03-02T00:53:51;5.10;91.10
70366;DHT22;57787;48.216;12.396;2024-03-02T00:56:19;5.00;91.10
70366;DHT22;57787;48.216;12.396;2024-03-02T00:58:46;5.00;91.30
70366;DHT22;57787;48.216;12.396;2024-03-02T01:01:12;5.00;91.10
70366;DHT22;57787;48.216;12.396;2024-03-02T01:03:40;5.00;91.20
70366;DHT22;57787;48.216;12.396;2024-03-02T01:06:08;5.00;91.30
70366;DHT22;57787;48.216;12.396;2024-03-02T01:08:35;5.00;91.40
70366;DHT22;57787;48.216;12.396;2024-03-02T01:11:02;5.10;91.40
70366;DHT22;57787;48.216;12.396;2024-03-02T01:13:29;5.10;91.50
70366;DHT22;57787;48.216;12.396;2024-03-02T01:15:56;5.20;91.70
70366;DHT22;57787;48.216;12.396;2024-03-02T01:18:23;5.20;91.70
70366;DHT22;57787;48.216;12.396;2024-03-02T01:20:50;5.30;91.70
70366;DHT22;57787;48.216;12.396;2024-03-02T01:23:23;5.30;91.70
70366;DHT22;57787;48.216;12.396;2024-03-02T01:25:50;5.30;91.80
70366;DHT22;57787;48.216;12.396;2024-03-02T01:28:17;5.30;91.80
70366;DHT22;57787;48.216;12.396;2024-03-02T01:30:44;5.40;91.90
70366;DHT22;57787;48.216;12.396;2024-03-02T01:33:11;5.40;91.80
70366;DHT22;57787;48.216;12.396;2024-03-02T01:35:38;5.40;91.70
70366;DHT22;57787;48.216;12.396;2024-03-02T01:38:05;5.40;91.70
70366;DHT22;57787;48.216;12.396;2024-03-02T01:40:36;5.50;91.60
70366;DHT22;57787;48.216;12.396;2024-03-02T01:43:03;5.40;91.60
70366;DHT22;57787;48.216;12.396;2024-03-02T01:45:30;5.40;91.60
70366;DHT22;57787;48.216;12.396;2024-03-02T01:47:57;5.40;91.60
70366;DHT22;57787;48.216;12.396;2024-03-02T01:50:28;5.40;91.60
70366;DHT22;57787;48.216;12.396;2024-03-02T01:52:55;5.30;91.40
70366;DHT22;57787;48.216;12.396;2024-03-02T01:55:22;5.30;91.40
70366;DHT22;57787;48.216;12.396;2024-03-02T01:57:49;5.30;91.30
70366;DHT22;57787;48.216;12.396;2024-03-02T02:00:19;5.20;90.90
70366;DHT22;57787;48.216;12.396;2024-03-02T02:02:46;5.20;90.80
70366;DHT22;57787;48.216;12.396;2024-03-02T02:05:14;5.10;90.50
70366;DHT22;57787;48.216;12.396;2024-03-02T02:07:41;5.10;90.60
70366;DHT22;57787;48.216;12.396;2024-03-02T02:10:11;5.00;90.70
70366;DHT22;57787;48.216;12.396;2024-03-02T02:12:38;5.00;90.80
70366;DHT22;57787;48.216;12.396;2024-03-02T02:15:21;4.90;90.60
70366;DHT22;57787;48.216;12.396;2024-03-02T02:17:48;4.80;90.70
70366;DHT22;57787;48.216;12.396;2024-03-02T02:20:15;4.80;90.80
70366;DHT22;57787;48.216;12.396;2024-03-02T02:22:52;4.70;90.90
70366;DHT22;57787;48.216;12.396;2024-03-02T02:25:19;4.70;91.20
70366;DHT22;57787;48.216;12.396;2024-03-02T02:27:46;4.70;91.20
70366;DHT22;57787;48.216;12.396;2024-03-02T02:30:13;4.70;91.00
70366;DHT22;57787;48.216;12.396;2024-03-02T02:32:40;4.70;91.20
70366;DHT22;57787;48.216;12.396;2024-03-02T02:35:06;4.70;91.20
70366;DHT22;57787;48.216;12.396;2024-03-02T02:37:33;4.60;91.10
70366;DHT22;57787;48.216;12.396;2024-03-02T02:40:00;4.70;91.10
70366;DHT22;57787;48.216;12.396;2024-03-02T02:42:27;4.60;91.00
70366;DHT22;57787;48.216;12.396;2024-03-02T02:44:53;4.60;91.20
70366;DHT22;57787;48.216;12.396;2024-03-02T02:47:22;4.60;91.20
70366;DHT22;57787;48.216;12.396;2024-03-02T02:49:49;4.60;91.20
70366;DHT22;57787;48.216;12.396;2024-03-02T02:52:16;4.60;91.40
70366;DHT22;57787;48.216;12.396;2024-03-02T02:54:44;4.60;91.20
70366;DHT22;57787;48.216;12.396;2024-03-02T02:57:11;4.60;91.10
70366;DHT22;57787;48.216;12.396;2024-03-02T02:59:38;4.60;91.00
70366;DHT22;57787;48.216;12.396;2024-03-02T03:02:05;4.60;91.00
70366;DHT22;57787;48.216;12.396;2024-03-02T03:04:32;4.60;90.90
70366;DHT22;57787;48.216;12.396;2024-03-02T03:06:58;4.50;90.90
70366;DHT22;57787;48.216;12.396;2024-03-02T03:09:25;4.60;90.90
70366;DHT22;57787;48.216;12.396;2024-03-02T03:11:52;4.50;91.00
70366;DHT22;57787;48.216;12.396;2024-03-02T03:14:18;4.50;90.60
70366;DHT22;57787;48.216;12.396;2024-03-02T03:16:46;4.50;90.70
70366;DHT22;57787;48.216;12.396;2024-03-02T03:19:12;4.50;90.80
70366;DHT22;57787;48.216;12.396;2024-03-02T03:21:39;4.50;90.80
70366;DHT22;57787;48.216;12.396;2024-03-02T03:24:06;4.40;90.90
70366;DHT22;57787;48.216;12.396;2024-03-02T03:26:35;4.40;90.80
70366;DHT22;57787;48.216;12.396;2024-03-02T03:29:02;4.40;90.50
70366;DHT22;57787;48.216;12.396;2024-03-02T03:31:29;4.40;90.70
70366;DHT22;57787;48.216;12.396;2024-03-02T03:33:56;4.40;90.80
70366;DHT22;57787;48.216;12.396;2024-03-02T03:36:22;4.40;90.80
70366;DHT22;57787;48.216;12.396;2024-03-02T03:38:49;4.30;90.70
70366;DHT22;57787;48.216;12.396;2024-03-02T03:41:16;4.30;90.80
70366;DHT22;57787;48.216;12.396;2024-03-02T03:43:42;4.30;90.90
70366;DHT22;57787;48.216;12.396;2024-03-02T03:46:09;4.30;90.90
70366;DHT22;57787;48.216;12.396;2024-03-02T03:48:36;4.30;90.90
70366;DHT22;57787;48.216;12.396;2024-03-02T03:51:03;4.40;91.00
70366;DHT22;57787;48.216;12.396;2024-03-02T03:53:30;4.40;90.90
70366;DHT22;57787;48.216;12.396;2024-03-02T03:55:57;4.40;90.80
70366;DHT22;57787;48.216;12.396;2024-03-02T03:58:23;4.40;90.70
70366;DHT22;57787;48.216;12.396;2024-03-02T04:00:50;4.40;90.60
70366;DHT22;57787;48.216;12.396;2024-03-02T04:03:17;4.40;90.70
70366;DHT22;57787;48.216;12.396;2024-03-02T04:05:44;4.40;90.60
70366;DHT22;57787;48.216;12.396;2024-03-02T04:08:11;4.40;90.50
70366;DHT22;57787;48.216;12.396;2024-03-02T04:10:38;4.40;90.60
70366;DHT22;57787;48.216;12.396;2024-03-02T04:13:06;4.40;90.70
70366;DHT22;57787;48.216;12.396;2024-03-02T04:15:33;4.40;90.40
70366;DHT22;57787;48.216;12.396;2024-03-02T04:18:00;4.30;90.70
70366;DHT22;57787;48.216;12.396;2024-03-02T04:20:27;4.30;90.40
70366;DHT22;57787;48.216;12.396;2024-03-02T04:22:54;4.30;90.50
70366;DHT22;57787;48.216;12.396;2024-03-02T04:25:20;4.30;90.40
70366;DHT22;57787;48.216;12.396;2024-03-02T04:27:47;4.30;90.60
70366;DHT22;57787;48.216;12.396;2024-03-02T04:30:14;4.30;90.60
70366;DHT22;57787;48.216;12.396;2024-03-02T04:32:41;4.20;90.60
70366;DHT22;57787;48.216;12.396;2024-03-02T04:35:08;4.20;90.70
70366;DHT22;57787;48.216;12.396;2024-03-02T04:37:35;4.20;90.60
70366;DHT22;57787;48.216;12.396;2024-03-02T04:40:02;4.20;90.60
70366;DHT22;57787;48.216;12.396;2024-03-02T04:42:29;4.10;90.70
70366;DHT22;57787;48.216;12.396;2024-03-02T04:44:55;4.10;90.80
70366;DHT22;57787;48.216;12.396;2024-03-02T04:47:22;4.10;90.80
70366;DHT22;57787;48.216;12.396;2024-03-02T04:49:49;4.10;90.90
70366;DHT22;57787;48.216;12.396;2024-03-02T04:52:16;4.10;91.00
70366;DHT22;57787;48.216;12.396;2024-03-02T04:54:43;4.20;91.10
70366;DHT22;57787;48.216;12.396;2024-03-02T04:57:49;4.20;90.90
70366;DHT22;57787;48.216;12.396;2024-03-02T05:00:17;4.20;90.80
70366;DHT22;57787;48.216;12.396;2024-03-02T05:02:44;4.20;90.60
70366;DHT22;57787;48.216;12.396;2024-03-02T05:05:11;4.20;90.80
70366;DHT22;57787;48.216;12.396;2024-03-02T05:07:38;4.10;90.60
70366;DHT22;57787;48.216;12.396;2024-03-02T05:10:04;4.10;90.60
70366;DHT22;57787;48.216;12.396;2024-03-02T05:12:31;4.10;90.60
70366;DHT22;57787;48.216;12.396;2024-03-02T05:15:11;4.10;90.70
70366;DHT22;57787;48.216;12.396;2024-03-02T05:17:38;4.10;90.70
70366;DHT22;57787;48.216;12.396;2024-03-02T05:20:05;4.10;90.70
70366;DHT22;57787;48.216;12.396;2024-03-02T05:22:32;4.00;90.70
70366;DHT22;57787;48.216;12.396;2024-03-02T05:25:00;4.00;90.80
70366;DHT22;57787;48.216;12.396;2024-03-02T05:27:27;4.00;90.80
70366;DHT22;57787;48.216;12.396;2024-03-02T05:29:54;4.00;90.80
70366;DHT22;57787;48.216;12.396;2024-03-02T05:32:21;4.00;90.80
70366;DHT22;57787;48.216;12.396;2024-03-02T05:34:48;4.00;90.80
70366;DHT22;57787;48.216;12.396;2024-03-02T05:37:17;3.90;90.80
70366;DHT22;57787;48.216;12.396;2024-03-02T05:39:44;3.90;91.00
70366;DHT22;57787;48.216;12.396;2024-03-02T05:42:11;4.00;91.00
70366;DHT22;57787;48.216;12.396;2024-03-02T05:44:37;4.00;91.10
70366;DHT22;57787;48.216;12.396;2024-03-02T05:47:04;4.00;91.20
70366;DHT22;57787;48.216;12.396;2024-03-02T05:49:31;4.00;91.20
70366;DHT22;57787;48.216;12.396;2024-03-02T05:51:57;4.10;91.10
70366;DHT22;57787;48.216;12.396;2024-03-02T05:54:24;4.10;91.00
70366;DHT22;57787;48.216;12.396;2024-03-02T05:56:52;4.10;91.00
70366;DHT22;57787;48.216;12.396;2024-03-02T05:59:20;4.00;90.90
70366;DHT22;57787;48.216;12.396;2024-03-02T06:01:47;4.00;91.00
70366;DHT22;57787;48.216;12.396;2024-03-02T06:04:17;4.00;90.90
70366;DHT22;57787;48.216;12.396;2024-03-02T06:06:44;4.10;91.00
70366;DHT22;57787;48.216;12.396;2024-03-02T06:09:11;4.10;91.00
70366;DHT22;57787;48.216;12.396;2024-03-02T06:11:40;4.20;90.80
70366;DHT22;57787;48.216;12.396;2024-03-02T06:14:08;4.20;90.80
70366;DHT22;57787;48.216;12.396;2024-03-02T06:16:35;4.30;90.80
70366;DHT22;57787;48.216;12.396;2024-03-02T06:19:02;4.20;90.50
70366;DHT22;57787;48.216;12.396;2024-03-02T06:21:29;4.30;90.30
70366;DHT22;57787;48.216;12.396;2024-03-02T06:23:56;4.30;90.20
70366;DHT22;57787;48.216;12.396;2024-03-02T06:26:23;4.20;89.80
70366;DHT22;57787;48.216;12.396;2024-03-02T06:28:51;4.20;89.90
70366;DHT22;57787;48.216;12.396;2024-03-02T06:31:18;4.30;90.20
70366;DHT22;57787;48.216;12.396;2024-03-02T06:33:45;4.40;90.20
70366;DHT22;57787;48.216;12.396;2024-03-02T06:36:12;4.40;90.10
70366;DHT22;57787;48.216;12.396;2024-03-02T06:38:39;4.50;89.70
70366;DHT22;57787;48.216;12.396;2024-03-02T06:41:09;4.50;89.30
70366;DHT22;57787;48.216;12.396;2024-03-02T06:43:36;4.60;89.40
70366;DHT22;57787;48.216;12.396;2024-03-02T06:46:02;4.70;89.30
70366;DHT22;57787;48.216;12.396;2024-03-02T06:48:31;4.80;89.20
70366;DHT22;57787;48.216;12.396;2024-03-02T06:50:58;4.90;88.90
70366;DHT22;57787;48.216;12.396;2024-03-02T06:53:25;4.90;88.90
70366;DHT22;57787;48.216;12.396;2024-03-02T06:55:52;5.00;88.50
70366;DHT22;57787;48.216;12.396;2024-03-02T06:58:18;5.10;88.00
70366;DHT22;57787;48.216;12.396;2024-03-02T07:00:45;5.10;88.10
70366;DHT22;57787;48.216;12.396;2024-03-02T07:03:12;5.10;87.50
70366;DHT22;57787;48.216;12.396;2024-03-02T07:05:40;5.20;88.00
70366;DHT22;57787;48.216;12.396;2024-03-02T07:08:07;5.20;87.60
70366;DHT22;57787;48.216;12.396;2024-03-02T07:10:34;5.30;87.80
70366;DHT22;57787;48.216;12.396;2024-03-02T07:13:01;5.40;87.40
70366;DHT22;57787;48.216;12.396;2024-03-02T07:15:28;5.50;87.40
70366;DHT22;57787;48.216;12.396;2024-03-02T07:17:55;5.50;87.40
70366;DHT22;57787;48.216;12.396;2024-03-02T07:20:22;5.70;87.40
70366;DHT22;57787;48.216;12.396;2024-03-02T07:22:49;5.80;87.00
70366;DHT22;57787;48.216;12.396;2024-03-02T07:25:16;5.90;87.00
70366;DHT22;57787;48.216;12.396;2024-03-02T07:27:45;6.00;86.30
70366;DHT22;57787;48.216;12.396;2024-03-02T07:30:15;6.10;86.00
70366;DHT22;57787;48.216;12.396;2024-03-02T07:32:45;6.10;85.70
70366;DHT22;57787;48.216;12.396;2024-03-02T07:35:12;6.20;85.10
70366;DHT22;57787;48.216;12.396;2024-03-02T07:37:42;6.00;84.80
70366;DHT22;57787;48.216;12.396;2024-03-02T07:40:10;6.00;85.30
70366;DHT22;57787;48.216;12.396;2024-03-02T07:42:40;5.90;86.00
70366;DHT22;57787;48.216;12.396;2024-03-02T07:45:07;6.00;86.00
70366;DHT22;57787;48.216;12.396;2024-03-02T07:47:34;6.00;85.80
70366;DHT22;57787;48.216;12.396;2024-03-02T07:50:01;6.00;85.40
70366;DHT22;57787;48.216;12.396;2024-03-02T07:52:28;6.00;85.50
70366;DHT22;57787;48.216;12.396;2024-03-02T07:54:55;6.00;85.60
70366;DHT22;57787;48.216;12.396;2024-03-02T07:57:22;5.90;85.40
70366;DHT22;57787;48.216;12.396;2024-03-02T07:59:49;6.00;85.70
70366;DHT22;57787;48.216;12.396;2024-03-02T08:02:16;6.10;85.50
70366;DHT22;57787;48.216;12.396;2024-03-02T08:04:42;6.30;85.50
70366;DHT22;57787;48.216;12.396;2024-03-02T08:07:09;6.50;84.50
70366;DHT22;57787;48.216;12.396;2024-03-02T08:09:36;6.50;84.30
70366;DHT22;57787;48.216;12.396;2024-03-02T08:12:03;6.50;83.80
70366;DHT22;57787;48.216;12.396;2024-03-02T08:14:29;6.60;83.40
70366;DHT22;57787;48.216;12.396;2024-03-02T08:16:56;6.60;83.00
70366;DHT22;57787;48.216;12.396;2024-03-02T08:19:23;6.60;83.10
70366;DHT22;57787;48.216;12.396;2024-03-02T08:21:50;6.60;83.40
70366;DHT22;57787;48.216;12.396;2024-03-02T08:24:17;6.80;83.40
70366;DHT22;57787;48.216;12.396;2024-03-02T08:26:44;6.70;83.60
70366;DHT22;57787;48.216;12.396;2024-03-02T08:29:10;6.80;83.30
70366;DHT22;57787;48.216;12.396;2024-03-02T08:31:38;6.90;84.10
70366;DHT22;57787;48.216;12.396;2024-03-02T08:34:09;6.90;83.70
70366;DHT22;57787;48.216;12.396;2024-03-02T08:36:38;6.80;83.70
70366;DHT22;57787;48.216;12.396;2024-03-02T08:39:04;6.80;84.30
70366;DHT22;57787;48.216;12.396;2024-03-02T08:41:34;6.90;83.80
70366;DHT22;57787;48.216;12.396;2024-03-02T08:44:00;6.90;84.00
70366;DHT22;57787;48.216;12.396;2024-03-02T08:46:27;6.90;84.10
70366;DHT22;57787;48.216;12.396;2024-03-02T08:48:54;6.90;84.40
70366;DHT22;57787;48.216;12.396;2024-03-02T08:51:21;7.00;84.10
70366;DHT22;57787;48.216;12.396;2024-03-02T08:53:49;7.00;84.40
70366;DHT22;57787;48.216;12.396;2024-03-02T08:56:16;7.00;84.30
70366;DHT22;57787;48.216;12.396;2024-03-02T08:58:44;7.00;84.20
70366;DHT22;57787;48.216;12.396;2024-03-02T09:01:10;7.00;84.30
70366;DHT22;57787;48.216;12.396;2024-03-02T09:03:38;7.00;84.50
70366;DHT22;57787;48.216;12.396;2024-03-02T09:06:04;7.00;84.90
70366;DHT22;57787;48.216;12.396;2024-03-02T09:08:31;7.10;85.00
70366;DHT22;57787;48.216;12.396;2024-03-02T09:10:58;7.20;84.50
70366;DHT22;57787;48.216;12.396;2024-03-02T09:13:25;7.10;84.20
70366;DHT22;57787;48.216;12.396;2024-03-02T09:15:52;7.20;84.60
70366;DHT22;57787;48.216;12.396;2024-03-02T09:18:19;7.20;84.40
70366;DHT22;57787;48.216;12.396;2024-03-02T09:20:46;7.20;84.60
70366;DHT22;57787;48.216;12.396;2024-03-02T09:23:12;7.30;84.50
70366;DHT22;57787;48.216;12.396;2024-03-02T09:25:39;7.40;83.70
70366;DHT22;57787;48.216;12.396;2024-03-02T09:28:06;7.20;83.30
70366;DHT22;57787;48.216;12.396;2024-03-02T09:30:34;7.30;83.60
70366;DHT22;57787;48.216;12.396;2024-03-02T09:33:01;7.40;83.70
70366;DHT22;57787;48.216;12.396;2024-03-02T09:35:30;7.50;83.90
70366;DHT22;57787;48.216;12.396;2024-03-02T09:37:57;7.60;83.10
70366;DHT22;57787;48.216;12.396;2024-03-02T09:40:24;7.60;83.10
70366;DHT22;57787;48.216;12.396;2024-03-02T09:42:51;7.60;82.80
70366;DHT22;57787;48.216;12.396;2024-03-02T09:45:23;7.60;82.50
70366;DHT22;57787;48.216;12.396;2024-03-02T09:47:50;7.70;82.30
70366;DHT22;57787;48.216;12.396;2024-03-02T09:50:17;7.80;82.90
70366;DHT22;57787;48.216;12.396;2024-03-02T09:52:47;7.80;82.30
70366;DHT22;57787;48.216;12.396;2024-03-02T09:55:15;7.80;81.40
70366;DHT22;57787;48.216;12.396;2024-03-02T09:57:42;8.00;82.50
70366;DHT22;57787;48.216;12.396;2024-03-02T10:00:09;8.00;82.10
70366;DHT22;57787;48.216;12.396;2024-03-02T10:02:42;8.10;81.90
70366;DHT22;57787;48.216;12.396;2024-03-02T10:05:09;8.10;81.80
70366;DHT22;57787;48.216;12.396;2024-03-02T10:07:35;8.20;81.30
70366;DHT22;57787;48.216;12.396;2024-03-02T10:10:12;8.30;80.90
70366;DHT22;57787;48.216;12.396;2024-03-02T10:12:39;8.40;81.00
70366;DHT22;57787;48.216;12.396;2024-03-02T10:15:06;8.60;81.00
70366;DHT22;57787;48.216;12.396;2024-03-02T10:17:34;8.60;81.10
70366;DHT22;57787;48.216;12.396;2024-03-02T10:22:46;8.70;79.40
70366;DHT22;57787;48.216;12.396;2024-03-02T10:25:28;8.70;79.70
70366;DHT22;57787;48.216;12.396;2024-03-02T10:28:08;8.60;80.30
70366;DHT22;57787;48.216;12.396;2024-03-02T10:30:36;8.80;79.90
70366;DHT22;57787;48.216;12.396;2024-03-02T10:33:03;8.90;79.30
70366;DHT22;57787;48.216;12.396;2024-03-02T10:35:32;9.00;78.80
70366;DHT22;57787;48.216;12.396;2024-03-02T10:38:01;9.00;80.50
70366;DHT22;57787;48.216;12.396;2024-03-02T10:40:29;9.30;79.80
70366;DHT22;57787;48.216;12.396;2024-03-02T10:42:56;9.40;79.00
70366;DHT22;57787;48.216;12.396;2024-03-02T10:45:24;9.80;78.10
70366;DHT22;57787;48.216;12.396;2024-03-02T10:47:51;9.60;78.10
70366;DHT22;57787;48.216;12.396;2024-03-02T10:50:18;9.50;77.40
70366;DHT22;57787;48.216;12.396;2024-03-02T10:52:45;9.60;78.20
70366;DHT22;57787;48.216;12.396;2024-03-02T10:55:15;9.70;76.20
70366;DHT22;57787;48.216;12.396;2024-03-02T10:57:53;9.80;76.90
70366;DHT22;57787;48.216;12.396;2024-03-02T11:00:21;10.00;76.20
70366;DHT22;57787;48.216;12.396;2024-03-02T11:02:57;9.90;76.10
70366;DHT22;57787;48.216;12.396;2024-03-02T11:05:28;9.90;76.90
70366;DHT22;57787;48.216;12.396;2024-03-02T11:08:05;9.90;76.60
70366;DHT22;57787;48.216;12.396;2024-03-02T11:13:33;9.60;78.20
70366;DHT22;57787;48.216;12.396;2024-03-02T11:16:05;9.70;78.10
70366;DHT22;57787;48.216;12.396;2024-03-02T11:18:33;9.60;77.60
70366;DHT22;57787;48.216;12.396;2024-03-02T11:21:00;9.50;78.00
70366;DHT22;57787;48.216;12.396;2024-03-02T11:23:33;9.30;78.30
70366;DHT22;57787;48.216;12.396;2024-03-02T11:26:18;9.20;79.40
70366;DHT22;57787;48.216;12.396;2024-03-02T11:28:45;9.30;78.90
70366;DHT22;57787;48.216;12.396;2024-03-02T11:31:12;9.30;79.30
70366;DHT22;57787;48.216;12.396;2024-03-02T11:33:39;9.30;79.30
70366;DHT22;57787;48.216;12.396;2024-03-02T11:36:06;9.40;79.50
70366;DHT22;57787;48.216;12.396;2024-03-02T11:38:37;9.50;79.30
70366;DHT22;57787;48.216;12.396;2024-03-02T11:41:07;9.60;79.10
70366;DHT22;57787;48.216;12.396;2024-03-02T11:43:38;9.80;80.00
70366;DHT22;57787;48.216;12.396;2024-03-02T11:46:06;10.00;79.40
70366;DHT22;57787;48.216;12.396;2024-03-02T11:48:39;10.10;78.80
70366;DHT22;57787;48.216;12.396;2024-03-02T11:51:06;10.30;78.50
70366;DHT22;57787;48.216;12.396;2024-03-02T11:53:33;10.50;77.20
70366;DHT22;57787;48.216;12.396;2024-03-02T11:56:03;10.60;77.40
70366;DHT22;57787;48.216;12.396;2024-03-02T11:58:32;10.60;76.90
70366;DHT22;57787;48.216;12.396;2024-03-02T12:01:00;10.60;77.20
70366;DHT22;57787;48.216;12.396;2024-03-02T12:03:32;10.70;76.80
70366;DHT22;57787;48.216;12.396;2024-03-02T12:06:02;10.80;77.30
70366;DHT22;57787;48.216;12.396;2024-03-02T12:08:29;11.00;77.70
70366;DHT22;57787;48.216;12.396;2024-03-02T12:10:58;11.20;77.00
70366;DHT22;57787;48.216;12.396;2024-03-02T12:13:26;11.40;75.40
70366;DHT22;57787;48.216;12.396;2024-03-02T12:15:53;11.40;75.10
70366;DHT22;57787;48.216;12.396;2024-03-02T12:18:21;11.50;75.70
70366;DHT22;57787;48.216;12.396;2024-03-02T12:20:49;11.80;75.60
70366;DHT22;57787;48.216;12.396;2024-03-02T12:23:15;11.90;74.10
70366;DHT22;57787;48.216;12.396;2024-03-02T12:25:43;11.90;74.40
70366;DHT22;57787;48.216;12.396;2024-03-02T12:28:10;12.00;74.80
70366;DHT22;57787;48.216;12.396;2024-03-02T12:30:37;12.00;74.70
70366;DHT22;57787;48.216;12.396;2024-03-02T12:33:04;11.90;73.60
70366;DHT22;57787;48.216;12.396;2024-03-02T12:35:31;11.90;73.60
70366;DHT22;57787;48.216;12.396;2024-03-02T12:37:59;11.80;73.10
70366;DHT22;57787;48.216;12.396;2024-03-02T12:40:26;11.80;72.60
70366;DHT22;57787;48.216;12.396;2024-03-02T12:42:56;11.90;73.20
70366;DHT22;57787;48.216;12.396;2024-03-02T12:45:23;12.00;72.60
70366;DHT22;57787;48.216;12.396;2024-03-02T12:47:52;12.20;71.20
70366;DHT22;57787;48.216;12.396;2024-03-02T12:50:20;12.30;71.90
70366;DHT22;57787;48.216;12.396;2024-03-02T12:52:50;12.40;71.20
70366;DHT22;57787;48.216;12.396;2024-03-02T12:55:17;12.60;71.30
70366;DHT22;57787;48.216;12.396;2024-03-02T12:57:44;12.60;70.50
70366;DHT22;57787;48.216;12.396;2024-03-02T13:00:15;12.70;70.50
70366;DHT22;57787;48.216;12.396;2024-03-02T13:02:45;12.70;70.00
70366;DHT22;57787;48.216;12.396;2024-03-02T13:05:13;12.60;70.10
70366;DHT22;57787;48.216;12.396;2024-03-02T13:07:40;12.50;70.30
70366;DHT22;57787;48.216;12.396;2024-03-02T13:10:07;12.50;70.50
70366;DHT22;57787;48.216;12.396;2024-03-02T13:12:36;12.50;71.40
70366;DHT22;57787;48.216;12.396;2024-03-02T13:15:04;12.60;72.10
70366;DHT22;57787;48.216;12.396;2024-03-02T13:17:34;12.70;72.30
70366;DHT22;57787;48.216;12.396;2024-03-02T13:20:04;12.80;71.00
70366;DHT22;57787;48.216;12.396;2024-03-02T13:22:35;12.90;70.60
70366;DHT22;57787;48.216;12.396;2024-03-02T13:25:02;13.00;70.40
70366;DHT22;57787;48.216;12.396;2024-03-02T13:27:33;13.20;68.50
70366;DHT22;57787;48.216;12.396;2024-03-02T13:30:01;13.30;69.70
70366;DHT22;57787;48.216;12.396;2024-03-02T13:32:29;13.30;67.70
70366;DHT22;57787;48.216;12.396;2024-03-02T13:34:56;13.30;68.10
70366;DHT22;57787;48.216;12.396;2024-03-02T13:37:23;13.20;66.40
70366;DHT22;57787;48.216;12.396;2024-03-02T13:39:50;13.00;67.20
70366;DHT22;57787;48.216;12.396;2024-03-02T13:42:17;13.00;67.20
70366;DHT22;57787;48.216;12.396;2024-03-02T13:44:44;13.00;68.80
70366;DHT22;57787;48.216;12.396;2024-03-02T13:47:14;13.10;68.30
70366;DHT22;57787;48.216;12.396;2024-03-02T13:49:45;13.10;68.40
70366;DHT22;57787;48.216;12.396;2024-03-02T13:52:14;13.20;67.00
70366;DHT22;57787;48.216;12.396;2024-03-02T13:54:43;13.20;66.20
70366;DHT22;57787;48.216;12.396;2024-03-02T13:57:10;13.20;65.70
70366;DHT22;57787;48.216;12.396;2024-03-02T13:59:41;13.10;66.40
70366;DHT22;57787;48.216;12.396;2024-03-02T14:02:09;13.10;66.30
70366;DHT22;57787;48.216;12.396;2024-03-02T14:04:36;13.20;66.80
70366;DHT22;57787;48.216;12.396;2024-03-02T14:07:05;13.30;66.80
70366;DHT22;57787;48.216;12.396;2024-03-02T14:09:35;13.20;67.30
70366;DHT22;57787;48.216;12.396;2024-03-02T14:12:03;13.10;67.70
70366;DHT22;57787;48.216;12.396;2024-03-02T14:14:31;13.00;68.00
70366;DHT22;57787;48.216;12.396;2024-03-02T14:16:59;13.00;68.40
70366;DHT22;57787;48.216;12.396;2024-03-02T14:19:30;13.10;68.10
70366;DHT22;57787;48.216;12.396;2024-03-02T14:21:57;13.00;68.00
70366;DHT22;57787;48.216;12.396;2024-03-02T14:24:24;13.00;68.60
70366;DHT22;57787;48.216;12.396;2024-03-02T14:26:52;13.00;68.80
70366;DHT22;57787;48.216;12.396;2024-03-02T14:29:28;13.00;68.90
70366;DHT22;57787;48.216;12.396;2024-03-02T14:32:03;13.10;69.30
70366;DHT22;57787;48.216;12.396;2024-03-02T14:34:30;13.10;68.30
70366;DHT22;57787;48.216;12.396;2024-03-02T14:36:57;13.10;68.30
70366;DHT22;57787;48.216;12.396;2024-03-02T14:39:24;13.10;68.20
70366;DHT22;57787;48.216;12.396;2024-03-02T14:41:51;13.10;69.30
70366;DHT22;57787;48.216;12.396;2024-03-02T14:44:18;13.10;68.60
70366;DHT22;57787;48.216;12.396;2024-03-02T14:46:48;13.10;68.50
70366;DHT22;57787;48.216;12.396;2024-03-02T14:49:15;13.20;68.90
70366;DHT22;57787;48.216;12.396;2024-03-02T14:51:43;13.20;69.20
70366;DHT22;57787;48.216;12.396;2024-03-02T14:54:10;13.30;69.00
70366;DHT22;57787;48.216;12.396;2024-03-02T14:56:37;13.30;69.40
70366;DHT22;57787;48.216;12.396;2024-03-02T14:59:04;13.20;68.20
70366;DHT22;57787;48.216;12.396;2024-03-02T15:01:31;13.20;68.40
70366;DHT22;57787;48.216;12.396;2024-03-02T15:04:01;13.10;68.60
70366;DHT22;57787;48.216;12.396;2024-03-02T15:06:30;13.00;68.80
70366;DHT22;57787;48.216;12.396;2024-03-02T15:08:57;13.00;68.60
70366;DHT22;57787;48.216;12.396;2024-03-02T15:11:24;13.00;68.30
70366;DHT22;57787;48.216;12.396;2024-03-02T15:13:51;13.00;67.60
70366;DHT22;57787;48.216;12.396;2024-03-02T15:16:18;12.90;67.70
70366;DHT22;57787;48.216;12.396;2024-03-02T15:18:45;12.80;67.80
70366;DHT22;57787;48.216;12.396;2024-03-02T15:21:12;12.80;68.30
70366;DHT22;57787;48.216;12.396;2024-03-02T15:23:39;12.60;68.40
70366;DHT22;57787;48.216;12.396;2024-03-02T15:26:07;12.60;68.40
70366;DHT22;57787;48.216;12.396;2024-03-02T15:28:35;12.60;68.50
70366;DHT22;57787;48.216;12.396;2024-03-02T15:31:02;12.50;68.90
70366;DHT22;57787;48.216;12.396;2024-03-02T15:33:30;12.50;69.40
70366;DHT22;57787;48.216;12.396;2024-03-02T15:35:59;12.40;69.70
70366;DHT22;57787;48.216;12.396;2024-03-02T15:38:28;12.30;69.00
70366;DHT22;57787;48.216;12.396;2024-03-02T15:41:01;12.20;69.00